createdAt,value
2019-02-10T00:01:11.850Z,4.80
2019-02-10T00:03:41.815Z,4.70
2019-02-10T00:06:10.238Z,4.80
2019-02-10T00:08:38.595Z,4.70
2019-02-10T00:11:06.996Z,4.70
2019-02-10T00:13:35.899Z,4.60
2019-02-10T00:16:14.266Z,4.60
2019-02-10T00:18:43.048Z,4.60
2019-02-10T00:21:11.479Z,4.60
2019-02-10T00:23:40.147Z,4.60
2019-02-10T00:26:08.532Z,4.60
2019-02-10T00:28:37.827Z,4.50
2019-02-10T00:31:06.178Z,4.50
2019-02-10T00:33:34.886Z,4.50
2019-02-10T00:36:03.239Z,4.50
2019-02-10T00:38:32.191Z,4.50
2019-02-10T00:41:00.542Z,4.60
2019-02-10T00:43:28.927Z,4.60
2019-02-10T00:45:57.491Z,4.70
2019-02-10T00:48:25.846Z,4.60
2019-02-10T00:50:54.164Z,4.60
2019-02-10T00:53:23.190Z,4.60
2019-02-10T00:55:51.926Z,4.60
2019-02-10T00:58:20.289Z,4.60
2019-02-10T01:00:48.695Z,4.60
2019-02-10T01:03:17.038Z,4.60
2019-02-10T01:05:46.062Z,4.60
2019-02-10T01:08:14.439Z,4.70
2019-02-10T01:10:43.010Z,4.80
2019-02-10T01:13:11.391Z,4.80
2019-02-10T01:15:40.075Z,4.80
2019-02-10T01:18:08.858Z,4.70
2019-02-10T01:20:37.919Z,4.70
2019-02-10T01:23:06.320Z,4.70
2019-02-10T01:25:35.303Z,4.70
2019-02-10T01:28:03.686Z,4.70
2019-02-10T01:30:32.057Z,4.70
2019-02-10T01:33:00.764Z,4.70
2019-02-10T01:35:29.151Z,4.70
2019-02-10T01:37:57.522Z,4.80
2019-02-10T01:40:26.587Z,4.70
2019-02-10T01:42:55.198Z,4.80
2019-02-10T01:45:24.086Z,4.80
2019-02-10T01:47:52.771Z,4.80
2019-02-10T01:50:21.456Z,4.90
2019-02-10T01:52:49.850Z,4.90
2019-02-10T01:55:18.533Z,4.90
2019-02-10T01:57:46.911Z,4.90
2019-02-10T02:00:16.898Z,5.00
2019-02-10T02:02:45.295Z,4.90
2019-02-10T02:05:13.660Z,4.90
2019-02-10T02:07:42.010Z,4.90
2019-02-10T02:10:13.810Z,4.90
2019-02-10T02:12:43.003Z,5.00
2019-02-10T02:15:15.795Z,5.10
2019-02-10T02:17:44.227Z,5.10
2019-02-10T02:20:13.255Z,5.20
2019-02-10T02:22:41.940Z,5.10
2019-02-10T02:25:11.944Z,5.10
2019-02-10T02:27:40.296Z,5.20
2019-02-10T02:30:14.867Z,5.20
2019-02-10T02:32:44.092Z,5.20
2019-02-10T02:35:12.632Z,5.20
2019-02-10T02:37:41.021Z,5.10
2019-02-10T02:40:12.220Z,5.10
2019-02-10T02:42:40.652Z,5.10
2019-02-10T02:45:30.336Z,5.10
2019-02-10T02:47:58.995Z,5.10
2019-02-10T02:50:27.364Z,5.20
2019-02-10T02:52:55.742Z,5.20
2019-02-10T02:55:24.123Z,5.20
2019-02-10T02:57:52.476Z,5.20
2019-02-10T03:00:21.627Z,5.30
2019-02-10T03:02:49.986Z,5.30
2019-02-10T03:05:18.406Z,5.40
2019-02-10T03:07:46.758Z,5.40
2019-02-10T03:10:15.127Z,5.40
2019-02-10T03:12:43.799Z,5.40
2019-02-10T03:15:12.227Z,5.40
2019-02-10T03:17:40.583Z,5.40
2019-02-10T03:20:09.647Z,5.40
2019-02-10T03:22:38.041Z,5.30
2019-02-10T03:25:07.639Z,5.30
2019-02-10T03:27:36.424Z,5.30
2019-02-10T03:30:09.339Z,5.30
2019-02-10T03:32:37.681Z,5.30
2019-02-10T03:35:07.495Z,5.30
2019-02-10T03:37:36.175Z,5.30
2019-02-10T03:40:07.361Z,5.40
2019-02-10T03:42:35.715Z,5.30
2019-02-10T03:45:05.507Z,5.40
2019-02-10T03:47:33.897Z,5.40
2019-02-10T03:50:03.032Z,5.50
2019-02-10T03:52:31.397Z,5.50
2019-02-10T03:55:00.472Z,5.50
2019-02-10T03:57:28.799Z,5.50
2019-02-10T03:59:57.155Z,5.50
2019-02-10T04:02:25.890Z,5.50
2019-02-10T04:04:54.257Z,5.60
2019-02-10T04:07:23.278Z,5.60
2019-02-10T04:09:52.165Z,5.60
2019-02-10T04:12:20.506Z,5.60
2019-02-10T04:14:49.210Z,5.60
2019-02-10T04:17:17.578Z,5.60
2019-02-10T04:19:45.945Z,5.60
2019-02-10T04:22:14.324Z,5.60
2019-02-10T04:24:43.350Z,5.60
2019-02-10T04:27:11.710Z,5.60
2019-02-10T04:29:40.095Z,5.60
2019-02-10T04:32:08.455Z,5.60
2019-02-10T04:34:37.619Z,5.60
2019-02-10T04:37:25.419Z,5.70
2019-02-10T04:39:54.368Z,5.70
2019-02-10T04:42:22.739Z,5.80
2019-02-10T04:44:51.134Z,5.80
2019-02-10T04:47:19.936Z,5.80
2019-02-10T04:49:48.879Z,5.80
2019-02-10T04:52:18.001Z,5.80
2019-02-10T04:54:46.612Z,5.80
2019-02-10T04:57:15.003Z,5.80
2019-02-10T04:59:43.360Z,5.70
2019-02-10T05:02:11.659Z,5.70
2019-02-10T05:04:40.320Z,5.60
2019-02-10T05:07:08.683Z,5.60
2019-02-10T05:09:37.042Z,5.50
2019-02-10T05:12:05.434Z,5.50
2019-02-10T05:14:34.351Z,5.50
2019-02-10T05:17:02.708Z,5.40
2019-02-10T05:19:31.099Z,5.40
2019-02-10T05:22:00.127Z,5.50
2019-02-10T05:24:29.083Z,5.50
2019-02-10T05:26:57.770Z,5.50
2019-02-10T05:29:26.131Z,5.40
2019-02-10T05:31:54.832Z,5.40
2019-02-10T05:34:23.514Z,5.40
2019-02-10T05:36:51.868Z,5.40
2019-02-10T05:39:20.183Z,5.40
2019-02-10T05:41:48.552Z,5.40
2019-02-10T05:44:17.237Z,5.40
2019-02-10T05:46:45.609Z,5.40
2019-02-10T05:49:13.996Z,5.30
2019-02-10T05:51:42.371Z,5.30
2019-02-10T05:54:10.744Z,5.40
2019-02-10T05:56:39.127Z,5.40
2019-02-10T05:59:07.497Z,5.40
2019-02-10T06:02:08.232Z,5.40
2019-02-10T06:04:44.083Z,5.40
2019-02-10T06:07:16.538Z,5.40
2019-02-10T06:09:45.015Z,5.40
2019-02-10T06:12:13.755Z,5.50
2019-02-10T06:14:42.112Z,5.50
2019-02-10T06:17:11.678Z,5.50
2019-02-10T06:19:40.761Z,5.40
2019-02-10T06:22:09.134Z,5.40
2019-02-10T06:24:37.500Z,5.50
2019-02-10T06:27:05.877Z,5.50
2019-02-10T06:29:34.523Z,5.40
2019-02-10T06:32:02.911Z,5.50
2019-02-10T06:34:31.275Z,5.50
2019-02-10T06:36:59.642Z,5.50
2019-02-10T06:39:28.061Z,5.50
2019-02-10T06:41:56.716Z,5.60
2019-02-10T06:44:25.650Z,5.60
2019-02-10T06:46:54.609Z,5.70
2019-02-10T06:49:22.969Z,5.80
2019-02-10T06:51:51.318Z,5.80
2019-02-10T06:54:19.811Z,5.80
2019-02-10T06:56:48.176Z,5.90
2019-02-10T06:59:34.340Z,5.90
2019-02-10T07:02:07.332Z,6.00
2019-02-10T07:04:36.273Z,6.10
2019-02-10T07:07:04.650Z,6.00
2019-02-10T07:09:32.962Z,6.00
2019-02-10T07:12:21.147Z,6.20
2019-02-10T07:14:49.504Z,6.20
2019-02-10T07:17:21.159Z,6.20
2019-02-10T07:20:26.322Z,6.30
2019-02-10T07:22:59.327Z,6.30
2019-02-10T07:25:41.953Z,6.30
2019-02-10T07:28:13.567Z,6.30
2019-02-10T07:34:20.617Z,6.40
2019-02-10T07:37:01.677Z,6.50
2019-02-10T07:39:45.414Z,6.40
2019-02-10T07:42:35.199Z,6.50
2019-02-10T07:45:34.686Z,6.60
2019-02-10T07:48:09.012Z,6.60
2019-02-10T07:50:55.904Z,6.60
2019-02-10T07:53:27.522Z,6.60
2019-02-10T07:56:22.095Z,6.60
2019-02-10T07:59:26.408Z,6.70
2019-02-10T08:02:06.858Z,6.70
2019-02-10T08:04:47.699Z,6.70
2019-02-10T08:07:41.454Z,6.70
2019-02-10T08:10:34.406Z,6.70
2019-02-10T08:13:11.827Z,6.80
2019-02-10T08:15:44.232Z,6.90
2019-02-10T08:18:27.583Z,6.90
2019-02-10T08:21:29.003Z,6.90
2019-02-10T08:24:51.591Z,7.00
2019-02-10T08:27:43.977Z,6.90
2019-02-10T08:30:47.070Z,7.00
2019-02-10T08:33:27.547Z,7.00
2019-02-10T08:36:46.857Z,7.00
2019-02-10T08:39:24.386Z,7.00
2019-02-10T08:42:14.796Z,7.00
2019-02-10T08:45:06.983Z,7.00
2019-02-10T08:47:38.634Z,7.10
2019-02-10T08:50:26.490Z,7.10
2019-02-10T08:53:04.122Z,7.20
2019-02-10T08:55:32.726Z,7.20
2019-02-10T08:58:01.979Z,7.20
2019-02-10T09:00:30.574Z,7.20
2019-02-10T09:03:19.546Z,7.30
2019-02-10T09:05:48.786Z,7.30
2019-02-10T09:08:17.520Z,7.30
2019-02-10T09:10:45.903Z,7.30
2019-02-10T09:13:14.926Z,7.30
2019-02-10T09:15:43.273Z,7.30
2019-02-10T09:18:11.953Z,7.30
2019-02-10T09:20:40.638Z,7.30
2019-02-10T09:23:09.010Z,7.30
2019-02-10T09:25:37.362Z,7.30
2019-02-10T09:28:05.718Z,7.30
2019-02-10T09:30:34.102Z,7.30
2019-02-10T09:33:02.735Z,7.30
2019-02-10T09:35:31.093Z,7.30
2019-02-10T09:37:59.478Z,7.40
2019-02-10T09:40:27.907Z,7.40
2019-02-10T09:42:56.259Z,7.30
2019-02-10T09:45:24.647Z,7.40
2019-02-10T09:47:55.156Z,7.30
2019-02-10T09:50:23.524Z,7.30
2019-02-10T09:52:52.808Z,7.40
2019-02-10T09:55:21.829Z,7.40
2019-02-10T09:57:50.233Z,7.40
2019-02-10T10:00:18.881Z,7.40
2019-02-10T10:02:47.254Z,7.50
2019-02-10T10:05:15.607Z,7.50
2019-02-10T10:07:43.894Z,7.50
2019-02-10T10:10:13.988Z,7.50
2019-02-10T10:12:42.302Z,7.50
2019-02-10T10:15:13.096Z,7.60
2019-02-10T10:17:41.478Z,7.60
2019-02-10T10:20:12.594Z,7.60
2019-02-10T10:22:42.284Z,7.60
2019-02-10T10:25:30.112Z,7.60
2019-02-10T10:27:58.485Z,7.60
2019-02-10T10:30:26.761Z,7.70
2019-02-10T10:32:56.050Z,7.70
2019-02-10T10:35:24.436Z,7.70
2019-02-10T10:37:53.385Z,7.70
2019-02-10T10:40:21.843Z,7.70
2019-02-10T10:42:50.757Z,7.70
2019-02-10T10:45:19.131Z,7.70
2019-02-10T10:47:47.503Z,7.70
2019-02-10T10:50:15.900Z,7.70
2019-02-10T10:52:45.625Z,7.70
2019-02-10T10:55:14.054Z,7.70
2019-02-10T10:57:42.427Z,7.60
2019-02-10T11:00:14.883Z,7.70
2019-02-10T11:02:43.276Z,7.60
2019-02-10T11:05:11.646Z,7.60
2019-02-10T11:07:40.101Z,7.60
2019-02-10T11:10:14.454Z,7.50
2019-02-10T11:12:42.807Z,7.50
2019-02-10T11:15:32.879Z,7.50
2019-02-10T11:18:01.273Z,7.50
2019-02-10T11:20:30.382Z,7.50
2019-02-10T11:22:58.671Z,7.50
2019-02-10T11:25:27.046Z,7.50
2019-02-10T11:27:55.419Z,7.50
2019-02-10T11:30:23.766Z,7.50
2019-02-10T11:32:52.071Z,7.50
2019-02-10T11:35:20.488Z,7.50
2019-02-10T11:37:48.864Z,7.50
2019-02-10T11:40:17.600Z,7.60
2019-02-10T11:42:46.263Z,7.60
2019-02-10T11:45:15.162Z,7.60
2019-02-10T11:47:43.522Z,7.60
2019-02-10T11:50:13.133Z,7.60
2019-02-10T11:52:42.269Z,7.60
2019-02-10T11:55:10.943Z,7.60
2019-02-10T11:57:39.350Z,7.60
2019-02-10T12:00:14.019Z,7.60
2019-02-10T12:02:43.195Z,7.60
2019-02-10T12:05:11.903Z,7.60
2019-02-10T12:07:40.260Z,7.60
2019-02-10T12:10:10.913Z,7.60
2019-02-10T12:12:39.274Z,7.70
2019-02-10T12:15:12.639Z,7.70
2019-02-10T12:17:41.366Z,7.70
2019-02-10T12:20:11.690Z,7.80
2019-02-10T12:22:40.063Z,7.80
2019-02-10T12:25:09.943Z,7.80
2019-02-10T12:27:38.297Z,7.80
2019-02-10T12:30:10.225Z,7.80
2019-02-10T12:32:38.512Z,7.80
2019-02-10T12:35:09.435Z,7.90
2019-02-10T12:37:37.938Z,7.90
2019-02-10T12:40:08.158Z,7.90
2019-02-10T12:42:36.506Z,7.90
2019-02-10T12:45:28.805Z,7.90
2019-02-10T12:47:57.435Z,7.90
2019-02-10T12:50:25.823Z,8.00
2019-02-10T12:52:55.514Z,7.90
2019-02-10T12:55:24.206Z,8.00
2019-02-10T12:57:52.590Z,7.90
2019-02-10T13:00:20.963Z,8.00
2019-02-10T13:02:50.071Z,8.00
2019-02-10T13:05:18.533Z,8.00
2019-02-10T13:07:46.953Z,8.00
2019-02-10T13:10:18.176Z,8.00
2019-02-10T13:12:46.742Z,8.00
2019-02-10T13:15:15.103Z,7.90
2019-02-10T13:17:43.462Z,7.90
2019-02-10T13:20:32.893Z,8.00
2019-02-10T13:23:01.554Z,8.00
2019-02-10T13:25:29.928Z,7.90
2019-02-10T13:27:58.320Z,7.90
2019-02-10T13:30:26.715Z,8.00
2019-02-10T13:32:55.167Z,8.00
2019-02-10T13:35:23.544Z,8.00
2019-02-10T13:37:51.898Z,8.00
2019-02-10T13:40:41.329Z,8.00
2019-02-10T13:43:09.679Z,8.00
2019-02-10T13:45:38.044Z,8.00
2019-02-10T13:48:06.427Z,8.00
2019-02-10T13:50:34.804Z,8.00
2019-02-10T13:53:04.027Z,8.10
2019-02-10T13:55:32.684Z,8.10
2019-02-10T13:58:01.043Z,8.10
2019-02-10T14:00:29.422Z,8.10
2019-02-10T14:02:58.183Z,8.10
2019-02-10T14:05:26.811Z,8.10
2019-02-10T14:07:55.527Z,8.10
2019-02-10T14:10:25.609Z,8.20
2019-02-10T14:12:56.659Z,8.30
2019-02-10T14:15:25.035Z,8.30
2019-02-10T14:17:53.390Z,8.30
2019-02-10T14:20:21.700Z,8.40
2019-02-10T14:22:50.554Z,8.40
2019-02-10T14:25:19.978Z,8.50
2019-02-10T14:27:48.419Z,8.50
2019-02-10T14:30:19.594Z,8.50
2019-02-10T14:32:47.883Z,8.50
2019-02-10T14:35:16.265Z,8.50
2019-02-10T14:37:44.620Z,8.50
2019-02-10T14:40:13.143Z,8.50
2019-02-10T14:42:41.514Z,8.50
2019-02-10T14:45:16.274Z,8.50
2019-02-10T14:47:44.911Z,8.40
2019-02-10T14:50:15.955Z,8.40
2019-02-10T14:52:45.338Z,8.30
2019-02-10T14:55:13.694Z,8.30
2019-02-10T14:57:42.061Z,8.30
2019-02-10T15:00:31.775Z,8.30
2019-02-10T15:03:00.131Z,8.20
2019-02-10T15:05:28.736Z,8.20
2019-02-10T15:07:57.121Z,8.30
2019-02-10T15:10:25.800Z,8.20
2019-02-10T15:12:54.479Z,8.20
2019-02-10T15:15:22.858Z,8.20
2019-02-10T15:17:51.224Z,8.20
2019-02-10T15:20:19.918Z,8.20
2019-02-10T15:22:48.666Z,8.20
2019-02-10T15:25:17.068Z,8.20
2019-02-10T15:27:45.457Z,8.00
2019-02-10T15:33:06.325Z,7.80
2019-02-10T15:35:34.835Z,7.70
2019-02-10T15:38:03.965Z,7.60
2019-02-10T15:40:51.783Z,7.50
2019-02-10T15:43:20.143Z,7.50
2019-02-10T15:45:48.501Z,7.50
2019-02-10T15:48:16.926Z,7.50
2019-02-10T15:50:45.279Z,7.50
2019-02-10T15:53:13.638Z,7.40
2019-02-10T15:55:42.029Z,7.40
2019-02-10T15:58:11.649Z,7.40
2019-02-10T16:00:40.686Z,7.30
2019-02-10T16:03:09.143Z,7.30
2019-02-10T16:05:37.497Z,7.30
2019-02-10T16:08:06.248Z,7.30
2019-02-10T16:10:34.598Z,7.20
2019-02-10T16:13:03.003Z,7.20
2019-02-10T16:15:32.462Z,7.10
2019-02-10T16:18:00.821Z,7.20
2019-02-10T16:20:29.202Z,7.10
2019-02-10T16:22:57.568Z,7.10
2019-02-10T16:25:25.927Z,7.10
2019-02-10T16:27:54.936Z,7.20
2019-02-10T16:30:23.343Z,7.20
2019-02-10T16:32:51.928Z,7.20
2019-02-10T16:35:21.019Z,7.20
2019-02-10T16:37:49.407Z,7.20
2019-02-10T16:40:23.786Z,7.20
2019-02-10T16:42:52.942Z,7.20
2019-02-10T16:45:21.983Z,7.10
2019-02-10T16:47:50.355Z,7.00
2019-02-10T16:50:18.728Z,7.10
2019-02-10T16:52:48.740Z,7.00
2019-02-10T16:55:20.951Z,7.10
2019-02-10T16:57:49.313Z,7.10
2019-02-10T17:00:17.975Z,7.10
2019-02-10T17:02:46.331Z,7.10
2019-02-10T17:05:14.710Z,7.20
2019-02-10T17:07:43.086Z,7.20
2019-02-10T17:10:30.903Z,7.10
2019-02-10T17:12:59.267Z,7.10
2019-02-10T17:15:27.663Z,7.00
2019-02-10T17:17:56.458Z,6.90
2019-02-10T17:20:24.807Z,7.00
2019-02-10T17:22:53.754Z,6.90
2019-02-10T17:25:29.430Z,6.90
2019-02-10T17:27:57.797Z,6.80
2019-02-10T17:30:26.698Z,6.80
2019-02-10T17:32:55.080Z,6.70
2019-02-10T17:35:23.452Z,6.70
2019-02-10T17:37:51.807Z,6.70
2019-02-10T17:40:27.920Z,6.60
2019-02-10T17:42:57.290Z,6.60
2019-02-10T17:45:26.221Z,6.50
2019-02-10T17:47:55.175Z,6.50
2019-02-10T17:50:23.525Z,6.40
2019-02-10T17:52:51.901Z,6.40
2019-02-10T17:55:20.617Z,6.30
2019-02-10T17:57:48.982Z,6.30
2019-02-10T18:00:18.945Z,6.20
2019-02-10T18:02:54.434Z,6.30
2019-02-10T18:05:23.040Z,6.20
2019-02-10T18:07:51.492Z,6.20
2019-02-10T18:10:20.116Z,6.10
2019-02-10T18:12:49.119Z,6.10
2019-02-10T18:15:28.626Z,6.10
2019-02-10T18:18:15.300Z,6.10
2019-02-10T18:21:01.601Z,6.10
2019-02-10T18:26:44.511Z,6.10
2019-02-10T18:32:10.099Z,6.00
2019-02-10T18:34:40.934Z,6.00
2019-02-10T18:37:27.545Z,6.00
2019-02-10T18:39:57.531Z,6.00
2019-02-10T18:42:28.298Z,6.00
2019-02-10T18:45:18.071Z,5.90
2019-02-10T18:47:50.599Z,5.90
2019-02-10T18:50:29.646Z,6.00
2019-02-10T18:53:15.968Z,6.00
2019-02-10T18:55:52.502Z,5.90
2019-02-10T18:58:23.273Z,6.00
2019-02-10T19:01:02.211Z,5.90
2019-02-10T19:03:32.624Z,5.90
2019-02-10T19:08:47.222Z,5.80
2019-02-10T19:11:21.003Z,5.80
2019-02-10T19:13:59.711Z,5.80
2019-02-10T19:16:32.895Z,5.80
2019-02-10T19:19:03.611Z,5.80
2019-02-10T19:21:34.323Z,5.70
2019-02-10T19:24:04.383Z,5.80
2019-02-10T19:29:35.117Z,5.80
2019-02-10T19:32:11.147Z,5.80
2019-02-10T19:34:59.450Z,5.80
2019-02-10T19:40:15.641Z,5.80
2019-02-10T19:42:52.184Z,5.70
2019-02-10T19:45:22.963Z,5.70
2019-02-10T19:48:01.923Z,5.70
2019-02-10T19:50:40.659Z,5.70
2019-02-10T19:53:10.751Z,5.70
2019-02-10T19:55:40.832Z,5.70
2019-02-10T19:58:11.664Z,5.70
2019-02-10T20:00:44.475Z,5.70
2019-02-10T20:03:19.495Z,5.70
2019-02-10T20:08:57.874Z,5.80
2019-02-10T20:14:18.534Z,5.80
2019-02-10T20:19:57.392Z,5.80
2019-02-10T20:22:27.438Z,5.80
2019-02-10T20:24:57.454Z,5.80
2019-02-10T20:27:30.305Z,5.70
2019-02-10T20:35:42.978Z,5.70
2019-02-10T20:38:29.216Z,5.60
2019-02-10T20:41:11.905Z,5.50
2019-02-10T20:43:41.903Z,5.50
2019-02-10T20:46:12.678Z,5.40
2019-02-10T20:54:32.513Z,5.30
2019-02-10T20:57:05.480Z,5.20
2019-02-10T20:59:42.172Z,5.20
2019-02-10T21:02:27.178Z,5.20
2019-02-10T21:04:57.207Z,5.20
2019-02-10T21:07:42.435Z,5.10
2019-02-10T21:10:22.386Z,5.10
2019-02-10T21:12:52.383Z,5.10
2019-02-10T21:15:25.291Z,5.10
2019-02-10T21:18:11.343Z,5.00
2019-02-10T21:20:56.221Z,5.00
2019-02-10T21:23:26.402Z,5.00
2019-02-10T21:26:11.633Z,4.90
2019-02-10T21:28:42.214Z,4.90
2019-02-10T21:31:14.623Z,4.90
2019-02-10T21:36:22.551Z,4.80
2019-02-10T21:39:09.143Z,4.80
2019-02-10T21:41:54.024Z,4.70
2019-02-10T21:44:27.060Z,4.70
2019-02-10T21:47:05.830Z,4.70
2019-02-10T21:49:34.153Z,4.60
2019-02-10T21:52:02.517Z,4.60
2019-02-10T21:54:30.945Z,4.60
2019-02-10T21:56:59.334Z,4.50
2019-02-10T21:59:27.690Z,4.50
2019-02-10T22:01:56.057Z,4.50
2019-02-10T22:04:24.452Z,4.50
2019-02-10T22:06:52.803Z,4.40
2019-02-10T22:09:21.170Z,4.40
2019-02-10T22:11:50.366Z,4.30
2019-02-10T22:14:19.723Z,4.30
2019-02-10T22:16:48.007Z,4.20
2019-02-10T22:19:16.388Z,4.20
2019-02-10T22:21:44.747Z,4.10
2019-02-10T22:24:13.137Z,4.10
2019-02-10T22:26:41.491Z,4.10
2019-02-10T22:29:09.842Z,4.00
2019-02-10T22:31:38.986Z,4.00
2019-02-10T22:34:07.669Z,3.90
2019-02-10T22:36:36.050Z,3.90
2019-02-10T22:39:05.051Z,3.80
2019-02-10T22:41:33.409Z,3.80
2019-02-10T22:44:01.796Z,3.80
2019-02-10T22:46:30.151Z,3.70
2019-02-10T22:48:58.531Z,3.60
2019-02-10T22:51:28.779Z,3.60
2019-02-10T22:53:57.051Z,3.50
2019-02-10T22:56:25.439Z,3.40
2019-02-10T22:58:53.806Z,3.40
2019-02-10T23:01:22.170Z,3.30
2019-02-10T23:03:50.549Z,3.30
2019-02-10T23:06:18.912Z,3.30
2019-02-10T23:08:47.360Z,3.20
2019-02-10T23:11:15.739Z,3.20
2019-02-10T23:13:45.586Z,3.00
2019-02-10T23:16:14.607Z,3.00
2019-02-10T23:18:42.988Z,3.00
2019-02-10T23:21:11.357Z,2.90
2019-02-10T23:23:39.711Z,2.80
2019-02-10T23:26:08.422Z,2.80
2019-02-10T23:28:36.818Z,2.80
2019-02-10T23:31:06.803Z,2.80
2019-02-10T23:33:35.176Z,2.70
2019-02-10T23:36:05.603Z,2.70
2019-02-10T23:38:34.301Z,2.70
2019-02-10T23:41:02.666Z,2.70
2019-02-10T23:43:31.032Z,2.60
2019-02-10T23:46:00.158Z,2.60
2019-02-10T23:48:30.436Z,2.60
2019-02-10T23:50:58.825Z,2.70
2019-02-10T23:53:28.047Z,2.70
2019-02-10T23:55:56.404Z,2.70
2019-02-10T23:58:24.781Z,2.70
